Ana Sayfa
METAR-TAF:

METAR-TAF

Havaalanları :

Sanford-Lee County Regional Airport

Sanford, Kuzey Carolina, Amerika Birleşik Devletleri

Enlem: 35-34-57N, Boylam: 079-06-05W, yükseklik: 75 m

Güncel hava durumu gözlemi

Rapor saat 17:35 UTC de 21 dakika önce yapıldı.
Rüzgar kuzey/kuzeydoğudan 6 kt
Sıcaklık 9°C
Nem 25%
Basınç 1023 hPa
Görüş mesafesi: 16.1 km
5000 ft yükseklikte çok bulutlu

METAR: KTTA 071735Z AUTO 03006KT 10SM OVC050 09/M10 A3020 RMK AO2 T00851102

Saat: 12:56 (17:56 UTC)


TAF: eksik

4.000'den fazla havaalanı için hava durumu gözlemleri ve tahminleri (METAR ve TAF raporları).

Kullanılabilir istasyonlar harita üzerinde sarı ve kırmızı noktalarla gösterilir.

İstasyonun adını görmek için fareyi noktanın üzerinde gezdirin.

Sonrasında hava gözlem ve tahminlerini görmek için tıklayın.

Haritayı değiştirmek için: yaklaştırmak için siyah artı işaretli yeşil düğmeye ve uzaklaştırmak için de eksi işaretli düğmeye hızla tıklayın; bitişik haritalar için yeşil okları kullanın.


METAR-TAF: